Chadstone Weather > Observations for 14/09/20

Select Day:



Observations
Time Temp Hum DP Wind Gust Dir Rain >9am Press
C % C kph kph mm hPa
00:00 11.6 82 8.6 1.5 6.1 NNW 0.0 1031.1
00:10 11.7 82 8.7 3.4 6.1 N 0.0 1031.0
00:20 11.6 82 8.6 4.2 7.2 N 0.0 1031.2
00:30 11.7 82 8.7 1.4 5.0 NNW 0.0 1031.2
00:40 11.7 82 8.7 1.1 5.0 N 0.0 1031.4
00:50 11.8 82 8.8 0.5 3.6 N 0.0 1031.2
01:00 11.8 82 8.8 1.0 5.0 N 0.0 1031.1
01:10 11.8 82 8.8 2.6 6.1 NNW 0.0 1031.1
01:20 11.8 82 8.8 1.4 6.1 NNW 0.0 1031.1
01:30 11.9 81 8.7 0.6 5.0 N 0.0 1030.9
01:40 11.9 81 8.7 0.0 0.0 N 0.0 1030.8
01:50 12.0 80 8.7 0.0 0.0 N 0.0 1030.8
02:00 12.0 80 8.7 0.0 0.0 N 0.0 1030.7
02:10 12.0 80 8.7 2.9 8.6 NW 0.0 1030.5
02:20 12.1 80 8.8 3.2 9.7 NNW 0.0 1030.5
02:30 12.3 79 8.8 2.7 5.0 NW 0.0 1030.4
02:40 12.3 79 8.8 1.4 8.6 NNW 0.0 1030.3
02:50 12.3 79 8.8 4.5 9.7 NW 0.0 1030.2
03:00 12.3 79 8.8 3.5 7.2 NW 0.0 1030.0
03:10 12.4 79 8.9 3.5 8.6 NW 0.0 1030.1
03:20 12.5 79 9.0 5.7 12.2 NW 0.0 1030.2
03:30 12.6 79 9.1 7.2 18.4 WNW 0.0 1030.5
03:40 12.6 79 9.1 6.6 14.8 WNW 0.0 1030.6
03:50 12.6 80 9.2 7.8 22.0 WNW 0.0 1030.7
04:00 12.5 81 9.3 5.5 13.3 NW 0.0 1030.8
04:10 12.3 82 9.3 5.3 8.6 WNW 0.0 1030.9
04:20 12.3 82 9.3 5.6 12.2 W 0.0 1031.2
04:30 12.4 83 9.6 6.4 13.3 WSW 0.0 1031.3
04:40 12.4 83 9.6 7.0 17.3 WSW 0.0 1031.4
04:50 12.3 83 9.5 7.4 17.3 NW 0.0 1031.3
05:00 12.3 83 9.5 5.5 14.8 W 0.0 1031.4
05:10 12.3 83 9.5 4.3 13.3 SW 0.0 1031.6
05:20 12.3 84 9.7 3.2 8.6 SSW 0.0 1031.8
05:30 12.3 84 9.7 4.8 13.3 W 0.0 1031.9
05:40 12.3 84 9.7 4.2 8.6 WSW 0.0 1032.0
05:50 12.3 84 9.7 5.9 19.4 WSW 0.0 1032.1
06:00 12.1 84 9.5 5.6 19.4 W 0.0 1032.0
06:10 12.0 84 9.4 6.6 17.3 W 0.0 1032.0
06:20 11.9 85 9.5 5.3 13.3 WNW 0.0 1032.2
06:30 11.7 86 9.4 3.9 11.2 W 0.0 1032.3
06:40 11.6 86 9.3 2.1 8.6 W 0.0 1032.3
06:50 11.6 86 9.3 2.4 8.6 WNW 0.0 1032.4
07:00 11.5 86 9.2 4.5 9.7 W 0.0 1032.4
07:10 11.6 86 9.3 4.8 11.2 WNW 0.0 1032.5
07:20 11.8 86 9.5 3.6 9.7 WNW 0.0 1032.7
07:30 11.9 86 9.6 4.2 9.7 WNW 0.0 1032.8
07:40 12.1 84 9.5 6.6 14.8 WNW 0.0 1032.8
07:50 12.3 84 9.7 8.4 15.8 WNW 0.0 1032.7
08:00 12.5 83 9.7 7.9 17.3 WNW 0.0 1032.8
08:10 12.8 83 10.0 9.5 17.3 W 0.0 1032.7
08:20 13.0 82 10.0 8.0 18.4 W 0.0 1032.9
08:30 13.3 80 9.9 7.9 18.4 WNW 0.0 1033.2
08:40 13.5 79 9.9 7.5 13.3 WNW 0.0 1033.4
08:50 13.6 78 9.8 5.7 14.8 W 0.0 1033.5
09:00 13.8 77 9.8 8.1 17.3 W 0.0 1033.7
09:10 14.0 76 9.8 7.2 17.3 WNW 0.0 1033.9
09:20 13.8 76 9.6 6.5 22.0 W 0.0 1034.1
09:30 13.9 76 9.7 5.8 20.9 SSW 0.0 1034.2
09:40 14.1 75 9.7 9.1 27.0 WNW 0.0 1034.1
09:50 14.0 75 9.6 9.3 27.0 WNW 0.9 1034.1
10:00 14.0 74 9.4 8.2 20.9 SW 0.9 1034.1
10:10 14.2 70 8.8 11.3 20.9 SW 0.9 1034.1
10:20 14.5 67 8.5 7.8 20.9 SW 0.9 1034.1
10:30 14.8 65 8.3 9.9 22.0 SW 0.9 1034.1
10:40 15.0 64 8.3 7.8 23.4 WNW 0.9 1034.2
10:50 15.2 63 8.2 5.7 20.9 WSW 0.9 1034.2
11:00 15.1 63 8.1 7.0 20.9 WSW 0.9 1034.3
11:10 15.2 62 8.0 5.8 20.9 WSW 0.9 1034.3
11:20 15.7 62 8.4 6.6 15.8 SW 0.9 1034.2
11:30 15.8 61 8.3 5.7 15.8 WSW 0.9 1034.2
11:40 15.6 59 7.6 6.1 18.4 WSW 0.9 1034.2
11:50 15.9 58 7.7 6.2 13.3 W 0.9 1034.1
12:00 16.2 55 7.2 7.6 15.8 WNW 0.9 1034.7
12:10 16.6 55 7.5 6.5 15.8 W 0.9 1034.8
12:20 16.8 55 7.7 6.7 18.4 WNW 0.9 1034.8
12:30 16.8 55 7.7 6.0 13.3 W 0.9 1034.7
12:40 16.9 54 7.5 4.5 14.8 S 0.9 1034.7
12:50 17.0 54 7.6 5.8 13.3 WSW 0.9 1034.7
13:00 17.4 53 7.7 5.5 14.8 SW 0.9 1034.7
13:10 17.2 53 7.5 6.3 14.8 SSW 0.9 1034.7
13:20 17.5 53 7.8 4.8 15.8 SW 0.9 1034.6
13:30 17.5 53 7.8 6.4 17.3 W 0.9 1034.4
13:40 17.8 52 7.8 5.7 12.2 W 0.9 1034.3
13:50 17.8 53 8.1 7.1 14.8 W 0.9 1034.3
14:00 17.8 52 7.8 4.6 14.8 SW 0.9 1034.3
14:10 17.6 52 7.6 4.4 12.2 S 0.9 1034.2
14:20 17.7 54 8.3 7.7 18.4 WSW 0.9 1034.3
14:30 17.5 52 7.5 3.6 12.2 SW 0.9 1034.4
14:40 17.3 52 7.4 5.4 13.3 W 0.9 1034.4
14:50 17.4 52 7.5 5.4 13.3 W 0.9 1034.4
15:00 17.3 51 7.1 4.5 13.3 SW 0.9 1034.2
15:10 17.3 52 7.4 4.3 11.2 SSW 0.9 1034.1
15:20 17.1 52 7.2 4.6 13.3 SSW 0.9 1034.0
15:30 17.1 52 7.2 3.8 17.3 SW 0.9 1034.2
15:40 17.2 52 7.3 6.2 13.3 W 0.9 1034.2
15:50 17.1 51 6.9 5.5 13.3 SW 0.9 1034.3
16:00 17.1 51 6.9 5.8 12.2 WSW 0.9 1034.3
16:10 17.0 51 6.8 4.6 12.2 WSW 0.9 1034.4
16:20 17.1 52 7.2 3.0 13.3 W 0.9 1034.7
16:30 17.1 52 7.2 3.9 13.3 WSW 0.9 1034.9
16:40 17.0 52 7.1 7.3 17.3 WNW 0.9 1035.0
16:50 16.8 54 7.4 4.6 15.8 SW 0.9 1035.0
17:00 16.6 54 7.3 3.9 12.2 WSW 0.9 1035.0
17:10 16.5 55 7.4 3.8 12.2 S 0.9 1035.2
17:20 16.3 55 7.2 2.2 9.7 SSW 0.9 1035.3
17:30 16.1 56 7.3 2.3 7.2 SW 0.9 1035.5
17:40 15.8 57 7.3 3.3 11.2 SSW 0.9 1035.6
17:50 15.5 57 7.0 2.2 12.2 SW 0.9 1035.5
18:00 15.3 59 7.3 0.4 6.1 SW 0.9 1035.2
18:10 15.0 62 7.8 1.1 8.6 SW 0.9 1035.1
18:20 14.4 65 7.9 0.1 3.6 SSW 0.9 1035.3
18:30 14.0 66 7.8 0.0 3.6 SSW 0.9 1035.3
18:40 13.6 68 7.8 0.0 2.5 N 0.9 1035.2
18:50 13.5 69 7.9 0.0 2.5 SSW 0.9 1035.2
19:00 13.3 70 7.9 0.2 5.0 SSE 0.9 1035.2
19:10 13.1 71 8.0 0.1 5.0 SSE 0.9 1035.2
19:20 13.0 72 8.1 0.0 2.5 S 0.9 1035.2
19:30 12.8 73 8.1 0.0 0.0 N 0.9 1035.3
19:40 12.7 74 8.2 0.0 1.1 SSW 0.9 1035.5
19:50 12.5 75 8.2 0.0 1.1 SSW 0.9 1035.7
20:00 12.3 76 8.2 0.0 1.1 SW 0.9 1035.8
20:10 12.2 77 8.3 0.0 1.1 SW 0.9 1035.8
20:20 12.1 78 8.4 0.0 0.0 N 0.9 1035.9
20:30 12.1 79 8.6 0.2 3.6 SW 0.9 1035.8
20:40 12.0 80 8.7 0.0 0.0 N 0.9 1036.0
20:50 11.9 82 8.9 0.0 0.0 N 0.9 1036.1
21:00 11.7 82 8.7 0.0 1.1 SW 0.9 1036.1
21:10 11.5 83 8.7 0.0 1.1 SW 0.9 1036.4
21:20 11.4 83 8.6 0.0 0.0 N 0.9 1036.3
21:30 11.2 84 8.6 0.0 0.0 N 0.9 1036.3
21:40 11.1 84 8.5 0.0 0.0 N 0.9 1036.3
21:50 10.9 85 8.5 0.0 0.0 N 0.9 1036.3
22:00 10.8 86 8.6 0.0 0.0 N 0.9 1036.2
22:10 10.7 86 8.5 0.0 0.0 N 0.9 1036.3
22:20 10.6 86 8.4 0.0 0.0 N 0.9 1036.3
22:30 10.6 86 8.4 0.0 0.0 N 0.9 1036.4
22:40 10.6 86 8.4 0.0 0.0 N 0.9 1036.3
22:50 10.6 86 8.4 0.0 0.0 N 0.9 1036.4
23:00 10.6 86 8.4 0.0 0.0 N 0.9 1036.6
23:10 10.6 86 8.4 0.0 0.0 N 0.9 1036.6
23:20 10.6 86 8.4 0.0 0.0 N 0.9 1036.5
23:30 10.6 86 8.4 0.0 0.0 N 0.9 1036.5
23:40 10.6 86 8.4 0.0 0.0 N 0.9 1036.6
23:50 10.6 86 8.4 0.0 0.0 N 0.9 1036.5